sensor_id;sensor_type;location;lat;lon;timestamp;pressure;altitude;pressure_sealevel;temperature;humidity
3434;BME280;1730;41.932;25.548;2023-02-04T00:01:28;99060.53;;;5.17;100.00
3434;BME280;1730;41.932;25.548;2023-02-04T00:03:54;99056.28;;;4.71;100.00
3434;BME280;1730;41.932;25.548;2023-02-04T00:06:20;98914.34;;;4.01;100.00
3434;BME280;1730;41.932;25.548;2023-02-04T00:08:45;98667.72;;;2.43;100.00
3434;BME280;1730;41.932;25.548;2023-02-04T00:11:11;98934.09;;;4.09;100.00
3434;BME280;1730;41.932;25.548;2023-02-04T00:13:36;99054.38;;;5.05;100.00
3434;BME280;1730;41.932;25.548;2023-02-04T00:16:02;98906.91;;;4.16;100.00
3434;BME280;1730;41.932;25.548;2023-02-04T00:18:28;99034.09;;;5.34;100.00
3434;BME280;1730;41.932;25.548;2023-02-04T00:20:53;99012.72;;;5.03;100.00
3434;BME280;1730;41.932;25.548;2023-02-04T00:23:19;98894.19;;;4.19;100.00
3434;BME280;1730;41.932;25.548;2023-02-04T00:25:45;99046.16;;;5.29;100.00
3434;BME280;1730;41.932;25.548;2023-02-04T00:28:10;99017.34;;;5.00;100.00
3434;BME280;1730;41.932;25.548;2023-02-04T00:30:36;99026.59;;;4.96;100.00
3434;BME280;1730;41.932;25.548;2023-02-04T00:33:01;98895.63;;;4.23;100.00
3434;BME280;1730;41.932;25.548;2023-02-04T00:35:27;99020.16;;;5.31;100.00
3434;BME280;1730;41.932;25.548;2023-02-04T00:37:52;99008.81;;;5.07;100.00
3434;BME280;1730;41.932;25.548;2023-02-04T00:40:18;99016.97;;;5.05;100.00
3434;BME280;1730;41.932;25.548;2023-02-04T00:42:43;98905.56;;;4.64;100.00
3434;BME280;1730;41.932;25.548;2023-02-04T00:45:10;98889.09;;;4.16;100.00
3434;BME280;1730;41.932;25.548;2023-02-04T00:47:35;99020.53;;;4.94;100.00
3434;BME280;1730;41.932;25.548;2023-02-04T00:50:01;99007.72;;;5.09;100.00
3434;BME280;1730;41.932;25.548;2023-02-04T00:52:27;99008.19;;;4.82;100.00
3434;BME280;1730;41.932;25.548;2023-02-04T00:54:53;98866.25;;;4.34;100.00
3434;BME280;1730;41.932;25.548;2023-02-04T00:57:18;98882.44;;;4.11;100.00
3434;BME280;1730;41.932;25.548;2023-02-04T00:59:44;98885.63;;;4.47;100.00
3434;BME280;1730;41.932;25.548;2023-02-04T01:02:09;98989.25;;;5.38;100.00
3434;BME280;1730;41.932;25.548;2023-02-04T01:04:35;98986.87;;;5.03;100.00
3434;BME280;1730;41.932;25.548;2023-02-04T01:07:00;98940.78;;;4.90;100.00
3434;BME280;1730;41.932;25.548;2023-02-04T01:09:26;98965.50;;;5.03;100.00
3434;BME280;1730;41.932;25.548;2023-02-04T01:11:51;98950.22;;;4.62;100.00
3434;BME280;1730;41.932;25.548;2023-02-04T01:14:17;98976.16;;;4.82;100.00
3434;BME280;1730;41.932;25.548;2023-02-04T01:16:42;98967.00;;;5.17;100.00
3434;BME280;1730;41.932;25.548;2023-02-04T01:19:09;98958.88;;;4.86;100.00
3434;BME280;1730;41.932;25.548;2023-02-04T01:21:35;98957.00;;;4.98;100.00
3434;BME280;1730;41.932;25.548;2023-02-04T01:24:01;98953.38;;;5.20;100.00
3434;BME280;1730;41.932;25.548;2023-02-04T01:26:26;98808.97;;;4.06;100.00
3434;BME280;1730;41.932;25.548;2023-02-04T01:28:52;98922.84;;;4.49;100.00
3434;BME280;1730;41.932;25.548;2023-02-04T01:31:17;98948.28;;;4.64;100.00
3434;BME280;1730;41.932;25.548;2023-02-04T01:33:43;98945.03;;;4.49;100.00
3434;BME280;1730;41.932;25.548;2023-02-04T01:36:09;98824.28;;;3.82;100.00
3434;BME280;1730;41.932;25.548;2023-02-04T01:38:35;98946.88;;;5.13;100.00
3434;BME280;1730;41.932;25.548;2023-02-04T01:41:01;98801.38;;;4.23;100.00
3434;BME280;1730;41.932;25.548;2023-02-04T01:43:27;98941.53;;;4.81;100.00
3434;BME280;1730;41.932;25.548;2023-02-04T01:45:52;98934.31;;;4.92;100.00
3434;BME280;1730;41.932;25.548;2023-02-04T01:48:20;98909.44;;;4.92;100.00
3434;BME280;1730;41.932;25.548;2023-02-04T01:50:48;98935.13;;;5.04;100.00
3434;BME280;1730;41.932;25.548;2023-02-04T01:53:17;98885.72;;;4.98;100.00
3434;BME280;1730;41.932;25.548;2023-02-04T01:55:44;98819.47;;;4.51;100.00
3434;BME280;1730;41.932;25.548;2023-02-04T01:58:11;98791.94;;;4.50;100.00
3434;BME280;1730;41.932;25.548;2023-02-04T02:00:37;98935.38;;;5.42;100.00
3434;BME280;1730;41.932;25.548;2023-02-04T02:03:04;98861.62;;;4.89;100.00
3434;BME280;1730;41.932;25.548;2023-02-04T02:05:36;98886.44;;;5.00;100.00
3434;BME280;1730;41.932;25.548;2023-02-04T02:08:05;98936.69;;;5.48;100.00
3434;BME280;1730;41.932;25.548;2023-02-04T02:10:32;98928.72;;;5.58;100.00
3434;BME280;1730;41.932;25.548;2023-02-04T02:12:59;98924.78;;;5.62;100.00
3434;BME280;1730;41.932;25.548;2023-02-04T02:15:26;98795.38;;;4.62;100.00
3434;BME280;1730;41.932;25.548;2023-02-04T02:17:53;98922.22;;;5.30;100.00
3434;BME280;1730;41.932;25.548;2023-02-04T02:20:21;98912.56;;;5.38;100.00
3434;BME280;1730;41.932;25.548;2023-02-04T02:25:27;98906.25;;;5.39;100.00
3434;BME280;1730;41.932;25.548;2023-02-04T02:27:54;98781.75;;;4.65;100.00
3434;BME280;1730;41.932;25.548;2023-02-04T02:30:20;98794.50;;;5.03;100.00
3434;BME280;1730;41.932;25.548;2023-02-04T02:32:46;98774.37;;;4.99;100.00
3434;BME280;1730;41.932;25.548;2023-02-04T02:35:13;98866.06;;;5.51;100.00
3434;BME280;1730;41.932;25.548;2023-02-04T02:37:40;98885.69;;;5.61;100.00
3434;BME280;1730;41.932;25.548;2023-02-04T02:40:06;98856.03;;;5.43;100.00
3434;BME280;1730;41.932;25.548;2023-02-04T02:42:32;98880.16;;;5.62;100.00
3434;BME280;1730;41.932;25.548;2023-02-04T02:44:58;98882.84;;;5.62;100.00
3434;BME280;1730;41.932;25.548;2023-02-04T02:47:25;98876.00;;;5.69;100.00
3434;BME280;1730;41.932;25.548;2023-02-04T02:49:51;98881.34;;;5.69;100.00
3434;BME280;1730;41.932;25.548;2023-02-04T02:52:18;98748.59;;;4.88;100.00
3434;BME280;1730;41.932;25.548;2023-02-04T02:54:45;98878.06;;;5.56;100.00
3434;BME280;1730;41.932;25.548;2023-02-04T02:57:15;98875.19;;;5.18;100.00
3434;BME280;1730;41.932;25.548;2023-02-04T02:59:41;98871.78;;;5.16;100.00
3434;BME280;1730;41.932;25.548;2023-02-04T03:02:08;98814.78;;;4.85;100.00
3434;BME280;1730;41.932;25.548;2023-02-04T03:04:48;98876.78;;;5.09;100.00
3434;BME280;1730;41.932;25.548;2023-02-04T03:07:15;98742.25;;;4.38;100.00
3434;BME280;1730;41.932;25.548;2023-02-04T03:09:42;98888.53;;;5.18;100.00
3434;BME280;1730;41.932;25.548;2023-02-04T03:12:08;98902.69;;;5.09;100.00
3434;BME280;1730;41.932;25.548;2023-02-04T03:14:34;98612.59;;;3.53;100.00
3434;BME280;1730;41.932;25.548;2023-02-04T03:17:01;98893.91;;;5.27;100.00
3434;BME280;1730;41.932;25.548;2023-02-04T03:19:28;98899.28;;;5.48;100.00
3434;BME280;1730;41.932;25.548;2023-02-04T03:21:55;98897.88;;;5.54;100.00
3434;BME280;1730;41.932;25.548;2023-02-04T03:24:20;98760.34;;;4.76;100.00
3434;BME280;1730;41.932;25.548;2023-02-04T03:26:46;98781.59;;;4.78;100.00
3434;BME280;1730;41.932;25.548;2023-02-04T03:29:12;98907.62;;;5.34;100.00
3434;BME280;1730;41.932;25.548;2023-02-04T03:31:38;98804.87;;;4.76;100.00
3434;BME280;1730;41.932;25.548;2023-02-04T03:34:03;98925.94;;;5.38;100.00
3434;BME280;1730;41.932;25.548;2023-02-04T03:36:29;98894.72;;;5.39;100.00
3434;BME280;1730;41.932;25.548;2023-02-04T03:38:54;98926.25;;;5.45;100.00
3434;BME280;1730;41.932;25.548;2023-02-04T03:41:21;98923.28;;;5.69;100.00
3434;BME280;1730;41.932;25.548;2023-02-04T03:43:46;98912.72;;;5.67;100.00
3434;BME280;1730;41.932;25.548;2023-02-04T03:46:12;98903.16;;;5.65;100.00
3434;BME280;1730;41.932;25.548;2023-02-04T03:48:37;98905.31;;;5.50;100.00
3434;BME280;1730;41.932;25.548;2023-02-04T03:51:03;98906.78;;;5.33;100.00
3434;BME280;1730;41.932;25.548;2023-02-04T03:53:29;98920.03;;;5.44;100.00
3434;BME280;1730;41.932;25.548;2023-02-04T03:55:54;98925.59;;;5.53;100.00
3434;BME280;1730;41.932;25.548;2023-02-04T03:58:20;98911.69;;;5.59;100.00
3434;BME280;1730;41.932;25.548;2023-02-04T04:00:45;98862.12;;;5.24;100.00
3434;BME280;1730;41.932;25.548;2023-02-04T04:03:11;98921.47;;;5.49;100.00
3434;BME280;1730;41.932;25.548;2023-02-04T04:05:36;98936.09;;;5.44;100.00
3434;BME280;1730;41.932;25.548;2023-02-04T04:08:02;98933.75;;;5.51;100.00
3434;BME280;1730;41.932;25.548;2023-02-04T04:10:27;98932.44;;;5.45;100.00
3434;BME280;1730;41.932;25.548;2023-02-04T04:12:56;98938.31;;;5.60;100.00
3434;BME280;1730;41.932;25.548;2023-02-04T04:15:22;98940.66;;;5.54;100.00
3434;BME280;1730;41.932;25.548;2023-02-04T04:17:47;98826.91;;;4.89;100.00
3434;BME280;1730;41.932;25.548;2023-02-04T04:20:13;98818.75;;;4.70;100.00
3434;BME280;1730;41.932;25.548;2023-02-04T04:22:38;98938.25;;;5.51;100.00
3434;BME280;1730;41.932;25.548;2023-02-04T04:25:06;98913.16;;;5.42;100.00
3434;BME280;1730;41.932;25.548;2023-02-04T04:27:32;98932.84;;;5.20;100.00
3434;BME280;1730;41.932;25.548;2023-02-04T04:29:57;98941.78;;;5.30;100.00
3434;BME280;1730;41.932;25.548;2023-02-04T04:32:23;98947.19;;;5.40;100.00
3434;BME280;1730;41.932;25.548;2023-02-04T04:34:48;98923.97;;;5.40;100.00
3434;BME280;1730;41.932;25.548;2023-02-04T04:37:14;98919.94;;;5.46;100.00
3434;BME280;1730;41.932;25.548;2023-02-04T04:39:39;98879.84;;;5.25;100.00
3434;BME280;1730;41.932;25.548;2023-02-04T04:42:05;98880.63;;;5.67;100.00
3434;BME280;1730;41.932;25.548;2023-02-04T04:44:30;98334.06;;;2.36;100.00
3434;BME280;1730;41.932;25.548;2023-02-04T04:46:56;98834.31;;;5.67;100.00
3434;BME280;1730;41.932;25.548;2023-02-04T04:49:22;98690.28;;;4.93;100.00
3434;BME280;1730;41.932;25.548;2023-02-04T04:51:48;98802.63;;;5.53;100.00
3434;BME280;1730;41.932;25.548;2023-02-04T04:54:13;98436.56;;;3.24;100.00
3434;BME280;1730;41.932;25.548;2023-02-04T04:56:39;98800.34;;;5.48;100.00
3434;BME280;1730;41.932;25.548;2023-02-04T04:59:05;98811.63;;;5.52;100.00
3434;BME280;1730;41.932;25.548;2023-02-04T05:01:30;98655.34;;;4.76;100.00
3434;BME280;1730;41.932;25.548;2023-02-04T05:03:55;98802.94;;;5.69;100.00
3434;BME280;1730;41.932;25.548;2023-02-04T05:06:21;98809.78;;;5.62;100.00
3434;BME280;1730;41.932;25.548;2023-02-04T05:08:52;98819.53;;;5.32;100.00
3434;BME280;1730;41.932;25.548;2023-02-04T05:11:19;98829.59;;;5.19;100.00
3434;BME280;1730;41.932;25.548;2023-02-04T05:13:45;98844.28;;;5.25;100.00
3434;BME280;1730;41.932;25.548;2023-02-04T05:16:10;98834.25;;;5.17;100.00
3434;BME280;1730;41.932;25.548;2023-02-04T05:18:37;98865.03;;;5.42;100.00
3434;BME280;1730;41.932;25.548;2023-02-04T05:21:03;98832.16;;;5.21;100.00
3434;BME280;1730;41.932;25.548;2023-02-04T05:23:28;98853.25;;;5.24;100.00
3434;BME280;1730;41.932;25.548;2023-02-04T05:25:54;98851.72;;;5.21;100.00
3434;BME280;1730;41.932;25.548;2023-02-04T05:28:19;98615.25;;;3.64;100.00
3434;BME280;1730;41.932;25.548;2023-02-04T05:30:45;98850.53;;;5.44;100.00
3434;BME280;1730;41.932;25.548;2023-02-04T05:33:10;98712.94;;;4.69;100.00
3434;BME280;1730;41.932;25.548;2023-02-04T05:35:36;98817.88;;;5.11;100.00
3434;BME280;1730;41.932;25.548;2023-02-04T05:38:01;98809.75;;;5.12;100.00
3434;BME280;1730;41.932;25.548;2023-02-04T05:40:27;98800.69;;;5.04;100.00
3434;BME280;1730;41.932;25.548;2023-02-04T05:42:52;98832.31;;;5.59;100.00
3434;BME280;1730;41.932;25.548;2023-02-04T05:45:17;98822.44;;;5.20;100.00
3434;BME280;1730;41.932;25.548;2023-02-04T05:47:43;98795.31;;;4.73;100.00
3434;BME280;1730;41.932;25.548;2023-02-04T05:50:09;98861.50;;;4.90;100.00
3434;BME280;1730;41.932;25.548;2023-02-04T05:52:35;98884.59;;;4.80;100.00
3434;BME280;1730;41.932;25.548;2023-02-04T05:55:00;98872.72;;;4.52;100.00
3434;BME280;1730;41.932;25.548;2023-02-04T05:57:26;98921.50;;;4.86;100.00
3434;BME280;1730;41.932;25.548;2023-02-04T05:59:52;98551.94;;;2.82;100.00
3434;BME280;1730;41.932;25.548;2023-02-04T06:02:17;98925.41;;;5.24;100.00
3434;BME280;1730;41.932;25.548;2023-02-04T06:04:43;98924.72;;;5.22;100.00
3434;BME280;1730;41.932;25.548;2023-02-04T06:07:09;98922.22;;;5.09;100.00
3434;BME280;1730;41.932;25.548;2023-02-04T06:09:36;98921.50;;;5.28;100.00
3434;BME280;1730;41.932;25.548;2023-02-04T06:12:01;98951.69;;;5.39;100.00
3434;BME280;1730;41.932;25.548;2023-02-04T06:14:27;98540.00;;;3.08;100.00
3434;BME280;1730;41.932;25.548;2023-02-04T06:16:52;98921.25;;;5.31;100.00
3434;BME280;1730;41.932;25.548;2023-02-04T06:19:18;98927.56;;;5.51;100.00
3434;BME280;1730;41.932;25.548;2023-02-04T06:21:43;98916.13;;;5.69;100.00
3434;BME280;1730;41.932;25.548;2023-02-04T06:24:09;98858.44;;;5.46;100.00
3434;BME280;1730;41.932;25.548;2023-02-04T06:26:34;98905.25;;;5.61;100.00
3434;BME280;1730;41.932;25.548;2023-02-04T06:29:00;98879.06;;;5.65;100.00
3434;BME280;1730;41.932;25.548;2023-02-04T06:31:26;98891.47;;;5.96;100.00
3434;BME280;1730;41.932;25.548;2023-02-04T06:33:51;98894.72;;;6.00;100.00
3434;BME280;1730;41.932;25.548;2023-02-04T06:36:17;98885.28;;;5.96;100.00
3434;BME280;1730;41.932;25.548;2023-02-04T06:38:42;98862.28;;;5.93;100.00
3434;BME280;1730;41.932;25.548;2023-02-04T06:41:08;98671.25;;;4.57;100.00
3434;BME280;1730;41.932;25.548;2023-02-04T06:43:33;98723.13;;;5.15;100.00
3434;BME280;1730;41.932;25.548;2023-02-04T06:45:59;98831.44;;;5.89;100.00
3434;BME280;1730;41.932;25.548;2023-02-04T06:48:24;98468.81;;;3.72;100.00
3434;BME280;1730;41.932;25.548;2023-02-04T06:50:50;98823.00;;;5.94;100.00
3434;BME280;1730;41.932;25.548;2023-02-04T06:53:15;98839.41;;;6.10;100.00
3434;BME280;1730;41.932;25.548;2023-02-04T06:55:41;98838.50;;;5.90;100.00
3434;BME280;1730;41.932;25.548;2023-02-04T06:58:06;98835.72;;;6.11;100.00
3434;BME280;1730;41.932;25.548;2023-02-04T07:00:32;98720.13;;;5.58;100.00
3434;BME280;1730;41.932;25.548;2023-02-04T07:02:57;98765.53;;;5.78;100.00
3434;BME280;1730;41.932;25.548;2023-02-04T07:05:24;98831.66;;;6.16;100.00
3434;BME280;1730;41.932;25.548;2023-02-04T07:07:49;98837.53;;;6.10;100.00
3434;BME280;1730;41.932;25.548;2023-02-04T07:10:16;98721.81;;;5.39;100.00
3434;BME280;1730;41.932;25.548;2023-02-04T07:12:42;98745.69;;;5.01;100.00
3434;BME280;1730;41.932;25.548;2023-02-04T07:15:08;98904.75;;;5.77;100.00
3434;BME280;1730;41.932;25.548;2023-02-04T07:17:33;98882.81;;;5.53;100.00
3434;BME280;1730;41.932;25.548;2023-02-04T07:19:59;98897.78;;;5.34;100.00
3434;BME280;1730;41.932;25.548;2023-02-04T07:22:24;98888.00;;;5.24;100.00
3434;BME280;1730;41.932;25.548;2023-02-04T07:24:50;98892.28;;;5.36;100.00
3434;BME280;1730;41.932;25.548;2023-02-04T07:27:15;98890.22;;;5.70;100.00
3434;BME280;1730;41.932;25.548;2023-02-04T07:29:41;98699.31;;;4.72;100.00
3434;BME280;1730;41.932;25.548;2023-02-04T07:32:07;98862.59;;;5.90;100.00
3434;BME280;1730;41.932;25.548;2023-02-04T07:34:32;98848.06;;;5.93;100.00
3434;BME280;1730;41.932;25.548;2023-02-04T07:36:58;98817.13;;;6.00;100.00
3434;BME280;1730;41.932;25.548;2023-02-04T07:39:23;98797.16;;;6.13;100.00
3434;BME280;1730;41.932;25.548;2023-02-04T07:41:49;98651.44;;;5.29;100.00
3434;BME280;1730;41.932;25.548;2023-02-04T07:44:14;98799.69;;;5.75;100.00
3434;BME280;1730;41.932;25.548;2023-02-04T07:46:39;98801.50;;;6.05;100.00
3434;BME280;1730;41.932;25.548;2023-02-04T07:49:05;98662.81;;;5.22;100.00
3434;BME280;1730;41.932;25.548;2023-02-04T07:51:30;98791.50;;;6.07;100.00
3434;BME280;1730;41.932;25.548;2023-02-04T07:53:56;98819.56;;;6.22;100.00
3434;BME280;1730;41.932;25.548;2023-02-04T07:56:21;98788.13;;;6.33;100.00
3434;BME280;1730;41.932;25.548;2023-02-04T07:58:47;98668.22;;;5.79;100.00
3434;BME280;1730;41.932;25.548;2023-02-04T08:01:12;98783.97;;;6.97;100.00
3434;BME280;1730;41.932;25.548;2023-02-04T08:03:38;98640.34;;;5.63;100.00
3434;BME280;1730;41.932;25.548;2023-02-04T08:06:03;98273.25;;;3.63;100.00
3434;BME280;1730;41.932;25.548;2023-02-04T08:08:29;98752.72;;;6.59;100.00
3434;BME280;1730;41.932;25.548;2023-02-04T08:10:54;98709.81;;;6.22;100.00
3434;BME280;1730;41.932;25.548;2023-02-04T08:13:20;98740.50;;;6.47;100.00
3434;BME280;1730;41.932;25.548;2023-02-04T08:15:45;98500.75;;;4.92;100.00
3434;BME280;1730;41.932;25.548;2023-02-04T08:18:11;98731.81;;;6.82;100.00
3434;BME280;1730;41.932;25.548;2023-02-04T08:20:36;98698.16;;;7.34;100.00
3434;BME280;1730;41.932;25.548;2023-02-04T08:23:02;98420.75;;;5.75;100.00
3434;BME280;1730;41.932;25.548;2023-02-04T08:25:27;98680.78;;;6.83;100.00
3434;BME280;1730;41.932;25.548;2023-02-04T08:27:54;98688.63;;;6.94;100.00
3434;BME280;1730;41.932;25.548;2023-02-04T08:30:19;98340.56;;;4.44;100.00
3434;BME280;1730;41.932;25.548;2023-02-04T08:32:45;98709.53;;;6.81;100.00
3434;BME280;1730;41.932;25.548;2023-02-04T08:35:10;98680.59;;;6.48;100.00
3434;BME280;1730;41.932;25.548;2023-02-04T08:37:37;98659.25;;;6.75;100.00
3434;BME280;1730;41.932;25.548;2023-02-04T08:40:03;98439.69;;;5.55;100.00
3434;BME280;1730;41.932;25.548;2023-02-04T08:42:29;98451.84;;;5.86;100.00
3434;BME280;1730;41.932;25.548;2023-02-04T08:44:54;98668.44;;;7.27;100.00
3434;BME280;1730;41.932;25.548;2023-02-04T08:47:20;98666.03;;;7.69;100.00
3434;BME280;1730;41.932;25.548;2023-02-04T08:49:45;98657.47;;;8.01;100.00
3434;BME280;1730;41.932;25.548;2023-02-04T08:52:11;98539.41;;;7.65;100.00
3434;BME280;1730;41.932;25.548;2023-02-04T08:54:36;98476.25;;;7.71;100.00
3434;BME280;1730;41.932;25.548;2023-02-04T08:57:02;98619.03;;;8.70;100.00
3434;BME280;1730;41.932;25.548;2023-02-04T08:59:28;98533.12;;;8.00;100.00
3434;BME280;1730;41.932;25.548;2023-02-04T09:01:54;98608.78;;;8.73;100.00
3434;BME280;1730;41.932;25.548;2023-02-04T09:04:20;98599.34;;;8.61;100.00
3434;BME280;1730;41.932;25.548;2023-02-04T09:06:47;98593.41;;;8.49;100.00
3434;BME280;1730;41.932;25.548;2023-02-04T09:09:13;98586.44;;;8.39;100.00
3434;BME280;1730;41.932;25.548;2023-02-04T09:11:39;98593.13;;;8.60;100.00
3434;BME280;1730;41.932;25.548;2023-02-04T09:14:05;98473.38;;;8.24;100.00
3434;BME280;1730;41.932;25.548;2023-02-04T09:16:31;98465.28;;;8.50;100.00
3434;BME280;1730;41.932;25.548;2023-02-04T09:18:57;98560.50;;;9.64;100.00
3434;BME280;1730;41.932;25.548;2023-02-04T09:21:30;98545.34;;;9.63;100.00
3434;BME280;1730;41.932;25.548;2023-02-04T09:23:55;98536.44;;;9.86;100.00
3434;BME280;1730;41.932;25.548;2023-02-04T09:26:21;98491.84;;;9.84;100.00
3434;BME280;1730;41.932;25.548;2023-02-04T09:28:47;98539.63;;;9.66;100.00
3434;BME280;1730;41.932;25.548;2023-02-04T09:31:14;98420.22;;;9.10;100.00
3434;BME280;1730;41.932;25.548;2023-02-04T09:33:40;98537.09;;;9.96;100.00
3434;BME280;1730;41.932;25.548;2023-02-04T09:36:06;98541.31;;;10.07;100.00
3434;BME280;1730;41.932;25.548;2023-02-04T09:38:32;98541.62;;;10.12;100.00
3434;BME280;1730;41.932;25.548;2023-02-04T09:41:03;98534.91;;;10.24;100.00
3434;BME280;1730;41.932;25.548;2023-02-04T09:43:33;98528.03;;;9.89;100.00
3434;BME280;1730;41.932;25.548;2023-02-04T09:46:00;98404.53;;;9.70;100.00
3434;BME280;1730;41.932;25.548;2023-02-04T09:48:26;98520.84;;;10.61;100.00
3434;BME280;1730;41.932;25.548;2023-02-04T09:51:02;98366.38;;;9.59;100.00
3434;BME280;1730;41.932;25.548;2023-02-04T09:53:29;98368.72;;;9.78;100.00
3434;BME280;1730;41.932;25.548;2023-02-04T09:55:54;98511.03;;;10.99;100.00
3434;BME280;1730;41.932;25.548;2023-02-04T09:58:21;98398.75;;;10.75;100.00
3434;BME280;1730;41.932;25.548;2023-02-04T10:01:14;98494.38;;;10.96;100.00
3434;BME280;1730;41.932;25.548;2023-02-04T10:03:42;98418.41;;;10.61;100.00
3434;BME280;1730;41.932;25.548;2023-02-04T10:06:13;98489.44;;;10.68;100.00
3434;BME280;1730;41.932;25.548;2023-02-04T10:08:39;98502.72;;;10.39;100.00
3434;BME280;1730;41.932;25.548;2023-02-04T10:11:05;98490.06;;;10.48;100.00
3434;BME280;1730;41.932;25.548;2023-02-04T10:13:36;98487.00;;;10.51;100.00
3434;BME280;1730;41.932;25.548;2023-02-04T10:16:07;98471.94;;;10.25;100.00
3434;BME280;1730;41.932;25.548;2023-02-04T10:18:35;98480.72;;;10.58;100.00
3434;BME280;1730;41.932;25.548;2023-02-04T10:21:26;98154.78;;;8.80;100.00
3434;BME280;1730;41.932;25.548;2023-02-04T10:23:57;98477.22;;;10.50;100.00
3434;BME280;1730;41.932;25.548;2023-02-04T10:26:26;98462.63;;;10.75;100.00
3434;BME280;1730;41.932;25.548;2023-02-04T10:29:05;98448.53;;;11.18;100.00
3434;BME280;1730;41.932;25.548;2023-02-04T10:31:34;98432.97;;;10.75;100.00
3434;BME280;1730;41.932;25.548;2023-02-04T10:34:17;98444.81;;;10.97;100.00
3434;BME280;1730;41.932;25.548;2023-02-04T10:36:53;98442.12;;;10.97;100.00
3434;BME280;1730;41.932;25.548;2023-02-04T10:39:21;98442.44;;;10.94;100.00
3434;BME280;1730;41.932;25.548;2023-02-04T10:44:18;98433.19;;;10.65;100.00
3434;BME280;1730;41.932;25.548;2023-02-04T10:46:44;98437.53;;;10.74;100.00
3434;BME280;1730;41.932;25.548;2023-02-04T10:49:17;98434.53;;;10.69;100.00
3434;BME280;1730;41.932;25.548;2023-02-04T10:51:42;98398.94;;;10.43;100.00
3434;BME280;1730;41.932;25.548;2023-02-04T10:54:11;98438.19;;;10.76;100.00
3434;BME280;1730;41.932;25.548;2023-02-04T10:57:21;98423.87;;;10.99;100.00
3434;BME280;1730;41.932;25.548;2023-02-04T10:59:55;98440.06;;;10.99;99.65
3434;BME280;1730;41.932;25.548;2023-02-04T11:02:58;98433.19;;;10.96;99.27
3434;BME280;1730;41.932;25.548;2023-02-04T11:05:31;98432.94;;;10.83;93.67
3434;BME280;1730;41.932;25.548;2023-02-04T11:07:57;98414.81;;;10.69;91.08
3434;BME280;1730;41.932;25.548;2023-02-04T11:10:28;98301.37;;;10.25;92.04
3434;BME280;1730;41.932;25.548;2023-02-04T11:15:48;98407.53;;;11.23;90.30
3434;BME280;1730;41.932;25.548;2023-02-04T11:20:49;98400.25;;;11.23;84.61
3434;BME280;1730;41.932;25.548;2023-02-04T11:23:35;98386.63;;;11.40;83.48
3434;BME280;1730;41.932;25.548;2023-02-04T11:26:12;98385.25;;;11.58;80.04
3434;BME280;1730;41.932;25.548;2023-02-04T11:34:00;98379.66;;;11.97;75.61
3434;BME280;1730;41.932;25.548;2023-02-04T11:36:26;98333.50;;;11.69;75.71
3434;BME280;1730;41.932;25.548;2023-02-04T11:38:53;98255.03;;;11.56;75.15
3434;BME280;1730;41.932;25.548;2023-02-04T11:41:26;98359.12;;;12.32;71.15
3434;BME280;1730;41.932;25.548;2023-02-04T11:43:54;98336.44;;;11.97;72.59
3434;BME280;1730;41.932;25.548;2023-02-04T11:46:22;98351.84;;;12.69;70.61
3434;BME280;1730;41.932;25.548;2023-02-04T11:48:52;98346.78;;;12.44;69.23
3434;BME280;1730;41.932;25.548;2023-02-04T11:51:20;98334.06;;;12.24;70.74
3434;BME280;1730;41.932;25.548;2023-02-04T11:53:51;98356.44;;;12.32;70.02
3434;BME280;1730;41.932;25.548;2023-02-04T11:56:20;98350.34;;;12.30;67.79
3434;BME280;1730;41.932;25.548;2023-02-04T11:58:47;98350.47;;;12.37;67.79
3434;BME280;1730;41.932;25.548;2023-02-04T12:01:21;98340.56;;;12.29;67.44
3434;BME280;1730;41.932;25.548;2023-02-04T12:03:55;98339.78;;;12.14;69.45
3434;BME280;1730;41.932;25.548;2023-02-04T12:06:23;98172.75;;;11.08;70.14
3434;BME280;1730;41.932;25.548;2023-02-04T12:08:49;98334.16;;;12.30;70.44
3434;BME280;1730;41.932;25.548;2023-02-04T12:11:27;97903.94;;;9.85;67.57
3434;BME280;1730;41.932;25.548;2023-02-04T12:13:57;98328.66;;;12.24;68.49
3434;BME280;1730;41.932;25.548;2023-02-04T12:16:23;98323.91;;;12.26;68.52
3434;BME280;1730;41.932;25.548;2023-02-04T12:18:49;98322.25;;;12.10;68.32
3434;BME280;1730;41.932;25.548;2023-02-04T12:21:16;98315.19;;;12.09;67.37
3434;BME280;1730;41.932;25.548;2023-02-04T12:23:43;98099.53;;;11.11;67.19
3434;BME280;1730;41.932;25.548;2023-02-04T12:26:09;98316.09;;;12.73;65.84
3434;BME280;1730;41.932;25.548;2023-02-04T12:28:35;98313.41;;;12.73;63.33
3434;BME280;1730;41.932;25.548;2023-02-04T12:31:00;98191.59;;;11.82;63.91
3434;BME280;1730;41.932;25.548;2023-02-04T12:33:26;98055.13;;;10.78;64.71
3434;BME280;1730;41.932;25.548;2023-02-04T12:35:51;98313.50;;;12.44;64.70
3434;BME280;1730;41.932;25.548;2023-02-04T12:38:17;97987.34;;;10.81;64.21
3434;BME280;1730;41.932;25.548;2023-02-04T12:40:43;98317.53;;;12.90;64.04
3434;BME280;1730;41.932;25.548;2023-02-04T12:43:09;98320.56;;;12.81;61.24
3434;BME280;1730;41.932;25.548;2023-02-04T12:45:34;97997.50;;;10.64;61.39
3434;BME280;1730;41.932;25.548;2023-02-04T12:48:00;98007.31;;;10.87;61.66
3434;BME280;1730;41.932;25.548;2023-02-04T12:50:26;98297.25;;;12.58;60.35
3434;BME280;1730;41.932;25.548;2023-02-04T12:52:57;98324.16;;;12.88;59.87
3434;BME280;1730;41.932;25.548;2023-02-04T12:55:24;98295.44;;;12.87;60.23
3434;BME280;1730;41.932;25.548;2023-02-04T12:57:51;98166.72;;;11.86;59.90
3434;BME280;1730;41.932;25.548;2023-02-04T13:00:17;98193.03;;;11.99;60.49
3434;BME280;1730;41.932;25.548;2023-02-04T13:02:43;98313.50;;;12.44;61.34
3434;BME280;1730;41.932;25.548;2023-02-04T13:05:09;98312.75;;;12.92;61.44
3434;BME280;1730;41.932;25.548;2023-02-04T13:07:35;97991.38;;;11.06;63.54
3434;BME280;1730;41.932;25.548;2023-02-04T13:10:02;98187.03;;;12.39;63.79
3434;BME280;1730;41.932;25.548;2023-02-04T13:12:27;98319.28;;;13.19;62.95
3434;BME280;1730;41.932;25.548;2023-02-04T13:14:53;98281.97;;;12.51;63.83
3434;BME280;1730;41.932;25.548;2023-02-04T13:17:19;98325.44;;;12.71;65.47
3434;BME280;1730;41.932;25.548;2023-02-04T13:19:44;98321.78;;;12.78;64.94
3434;BME280;1730;41.932;25.548;2023-02-04T13:22:09;97998.38;;;10.35;67.97
3434;BME280;1730;41.932;25.548;2023-02-04T13:24:35;98333.31;;;12.30;69.06